Portada
METAR-TAF:

METAR-TAF

Aeroports :

Valley, Gal·les

latitud: 53-15N, longitud: 004-32W, altitud: 1 m

Observació

L'informe es va fer fa 1 hora i 24 minuts, a les 01:50 UTC
Vent 5 kt del Nord/Nord-Est
Temperatura 9°C
Humitat 93%
Pressió 1037 hPa

METAR: EGOV 270150Z AUTO 03005KT //// // NCD 09/08 Q1037

Hora: 04:14 (03:14 UTC)

Pronòstic

L'informe es va fer fa 16 hores i 32 minuts, a les 10:42 UTC
Pronòstic vàlid del 26 a les 12 UTC al 26 a les 17 UTC
Vent 7 kt del Oest/Sud-Oest
Visibilitat 10 km o més
Núvols disperses a una alçada de 1700 ft
Evolucionant progressivament
l' 26 a les 12 UTC al 26 a les 13 UTC
Núvols disperses a una alçada de 3000 ft

TAF: EGOV 261042Z 2612/2617 25007KT 9999 SCT017 BECMG 2612/2613 SCT030

Observacions i pronòstics meteorològics de més de 4000 aeroports (METAR i TAF).

Les estacions disponibles són els punts grocs i vermells al mapa.

Posi el ratolí al punt desitjat per veure el nom de l'estació.

Feu clic per veure les observacions i els pronòstics meteorològics.

Per canviar el mapa: feu clic els botons verds amb una creu de color negre per apropar; al botó verd amb un guió per allunyar la imatge; o en les fletxes verdes per a mapes adjacents.


METAR-TAF: